Terminal Aerodrome Forecast
Issued by NWS Cleveland, OH

Home | Current Version | Previous Version | Graphics & Text | Print | Product List | Glossary On
Versions: 1 2 3 4 5 6 7 8 9 10 11 12 13 14 15
000
FTUS41 KCLE 081130
TAFYNG
TAF
KYNG 081130Z 0812/0912 24012KT P6SM BKN020
      TEMPO 0812/0816 SCT020 BKN100
     FM081600 27015G22KT P6SM VCSH OVC030
     FM090000 26012G20KT 4SM -SHSN OVC022
     FM090700 27012G20KT 2SM -SHSN OVC015=

USA.gov is the U.S. government's official web portal to all federal, state and local government web resources and services.